Time;durP1;ratioP1;P1;durP2;ratioP2;P2;SDS_P1;SDS_P2;PMS_P1;PMS_P2;Temp;Humidity;BMP_temperature;BMP_pressure;BME280_temperature;BME280_humidity;BME280_pressure;Samples;Min_cycle;Max_cycle;Signal;HPM_P1;HPM_P2
2022/11/03 00:01:39;;;;;;;1.10;1.10;;;;;5.60;96386.00;;;;5093992;28;20259;-53
2022/11/03 00:04:07;;;;;;;1.13;1.13;;;;;5.60;96381.00;;;;5094031;28;20301;-54
2022/11/03 00:06:37;;;;;;;1.17;1.17;;;;;5.60;96374.00;;;;5093987;28;20634;-58
2022/11/03 00:09:07;;;;;;;1.33;1.33;;;;;5.70;96371.00;;;;5094040;28;20663;-55
2022/11/03 00:11:35;;;;;;;0.87;0.87;;;;;5.80;96374.00;;;;5093971;28;20348;-54
2022/11/03 00:14:03;;;;;;;1.10;1.10;;;;;5.70;96381.00;;;;5093879;28;20189;-55
2022/11/03 00:16:30;;;;;;;1.70;1.53;;;;;5.70;96368.00;;;;5093823;28;20229;-55
2022/11/03 00:18:58;;;;;;;1.43;1.33;;;;;5.40;96367.00;;;;5093260;28;20224;-53
2022/11/03 00:21:25;;;;;;;3.63;2.27;;;;;5.30;96365.00;;;;5093911;28;20633;-53
2022/11/03 00:23:54;;;;;;;0.80;0.80;;;;;5.40;96358.00;;;;5093760;28;20261;-53
2022/11/03 00:26:23;;;;;;;1.67;1.57;;;;;5.40;96360.00;;;;5093659;28;20215;-53
2022/11/03 00:28:51;;;;;;;1.37;1.37;;;;;5.40;96351.00;;;;5093878;28;20235;-53
2022/11/03 00:31:19;;;;;;;1.17;1.03;;;;;5.40;96350.00;;;;5093800;28;20198;-53
2022/11/03 00:33:47;;;;;;;1.40;1.33;;;;;5.30;96361.00;;;;5093701;28;20214;-53
2022/11/03 00:36:19;;;;;;;0.60;0.60;;;;;5.20;96359.00;;;;5093610;28;20196;-53
2022/11/03 00:38:46;;;;;;;1.60;1.50;;;;;5.30;96357.00;;;;5093570;28;20269;-53
2022/11/03 00:41:14;;;;;;;1.50;1.40;;;;;5.30;96352.00;;;;5093383;28;20222;-53
2022/11/03 00:43:41;;;;;;;2.20;1.43;;;;;5.30;96362.00;;;;5075823;28;20526;-53
2022/11/03 00:46:09;;;;;;;1.60;1.50;;;;;5.30;96346.00;;;;5093457;28;20195;-54
2022/11/03 00:48:36;;;;;;;0.80;0.80;;;;;5.30;96346.00;;;;5093366;28;20200;-53
2022/11/03 00:51:08;;;;;;;0.83;0.83;;;;;5.30;96337.00;;;;5075403;28;20526;-53
2022/11/03 00:53:37;;;;;;;2.53;1.13;;;;;5.30;96349.00;;;;5093100;28;20239;-53
2022/11/03 00:56:07;;;;;;;1.63;1.53;;;;;5.40;96341.00;;;;5093405;28;20190;-53
2022/11/03 00:58:34;;;;;;;1.57;1.47;;;;;5.40;96342.00;;;;5093036;28;20190;-54
2022/11/03 01:01:03;;;;;;;1.10;1.10;;;;;5.30;96335.00;;;;5093210;28;20543;-54
2022/11/03 01:03:30;;;;;;;2.47;1.53;;;;;5.20;96335.00;;;;5093202;28;20663;-53
2022/11/03 01:08:43;;;;;;;0.80;0.80;;;;;5.00;96334.00;;;;5093072;28;20210;-53
2022/11/03 01:13:57;;;;;;;1.50;1.40;;;;;5.20;96320.00;;;;5092956;28;20243;-53
2022/11/03 01:16:24;;;;;;;0.50;0.50;;;;;5.20;96322.00;;;;5075292;28;20769;-53
2022/11/03 01:18:51;;;;;;;4.63;2.13;;;;;5.20;96306.00;;;;5092852;28;20285;-55
2022/11/03 01:21:18;;;;;;;1.20;1.20;;;;;5.10;96309.00;;;;5093250;28;20194;-53
2022/11/03 01:23:45;;;;;;;1.20;1.20;;;;;5.20;96295.00;;;;5093207;28;20220;-54
2022/11/03 01:26:13;;;;;;;1.00;1.00;;;;;5.30;96294.00;;;;5092972;28;20204;-55
2022/11/03 01:28:43;;;;;;;1.53;1.00;;;;;5.30;96303.00;;;;5092853;28;20197;-53
2022/11/03 01:31:12;;;;;;;1.27;1.27;;;;;5.20;96295.00;;;;5077029;28;20211;-53
2022/11/03 01:33:39;;;;;;;1.87;1.70;;;;;5.10;96299.00;;;;5078568;28;20209;-52
2022/11/03 01:36:07;;;;;;;1.07;1.00;;;;;5.10;96302.00;;;;5096214;28;20664;-53
2022/11/03 01:38:35;;;;;;;0.80;0.80;;;;;4.90;96303.00;;;;5078705;28;20190;-55
2022/11/03 01:41:05;;;;;;;1.60;1.53;;;;;4.80;96289.00;;;;5096295;28;20194;-54
2022/11/03 01:43:32;;;;;;;1.23;1.23;;;;;4.90;96298.00;;;;5096302;28;20205;-53
2022/11/03 01:46:06;;;;;;;1.43;1.33;;;;;4.90;96283.00;;;;5096261;28;20191;-57
2022/11/03 01:48:33;;;;;;;1.40;1.30;;;;;4.80;96289.00;;;;5096102;28;20663;-59
2022/11/03 01:51:04;;;;;;;1.47;1.37;;;;;4.70;96275.00;;;;5096251;28;20205;-55
2022/11/03 01:53:34;;;;;;;1.03;1.03;;;;;4.70;96275.00;;;;5096090;28;20223;-54
2022/11/03 01:56:03;;;;;;;0.63;0.63;;;;;4.70;96278.00;;;;5096149;28;20206;-53
2022/11/03 01:58:33;;;;;;;0.60;0.60;;;;;4.70;96283.00;;;;5095831;28;20190;-53
2022/11/03 02:01:01;;;;;;;1.10;1.10;;;;;4.60;96276.00;;;;5078283;28;20186;-53
2022/11/03 02:03:36;;;;;;;1.40;1.30;;;;;4.60;96278.00;;;;5096013;28;20208;-53
2022/11/03 02:06:03;;;;;;;1.00;1.00;;;;;4.50;96276.00;;;;5095904;28;20198;-53
2022/11/03 02:08:35;;;;;;;3.43;2.30;;;;;4.60;96274.00;;;;5095832;28;20186;-53
2022/11/03 02:12:05;;;;;;;0.90;0.90;;;;;4.70;96268.00;;;;5095672;28;20218;-52
2022/11/03 02:13:50;;;;;;;1.10;1.10;;;;;4.70;96260.00;;;;5077864;28;20214;-53
2022/11/03 02:16:18;;;;;;;1.27;1.27;;;;;4.70;96263.00;;;;5095587;28;20305;-53
2022/11/03 02:18:46;;;;;;;1.40;1.30;;;;;4.60;96258.00;;;;5095585;28;20218;-53
2022/11/03 02:21:24;;;;;;;1.93;1.83;;;;;4.60;96261.00;;;;5095424;28;20247;-55
2022/11/03 02:23:58;;;;;;;1.40;1.30;;;;;4.70;96243.00;;;;5095740;28;20280;-55
2022/11/03 02:26:25;;;;;;;1.47;1.37;;;;;4.60;96248.00;;;;5095468;28;20191;-52
2022/11/03 02:28:52;;;;;;;1.47;1.37;;;;;4.50;96242.00;;;;5077759;28;20199;-56
2022/11/03 02:31:27;;;;;;;1.57;1.47;;;;;4.60;96221.00;;;;5077854;28;20204;-54
2022/11/03 02:34:04;;;;;;;1.27;1.17;;;;;4.50;96228.00;;;;5095339;28;20218;-54
2022/11/03 02:36:35;;;;;;;1.93;1.43;;;;;4.50;96205.00;;;;5095364;28;20284;-54
2022/11/03 02:39:06;;;;;;;0.80;0.80;;;;;4.40;96217.00;;;;5095086;28;20227;-54
2022/11/03 02:41:36;;;;;;;1.23;1.23;;;;;4.30;96201.00;;;;5094877;28;20191;-53
2022/11/03 02:44:05;;;;;;;0.77;0.77;;;;;4.30;96198.00;;;;5095172;28;20227;-58
2022/11/03 02:46:33;;;;;;;0.83;0.83;;;;;4.30;96200.00;;;;5095466;28;20194;-54
2022/11/03 02:49:00;;;;;;;1.30;1.30;;;;;4.30;96194.00;;;;5095025;28;20655;-53
2022/11/03 02:51:27;;;;;;;1.90;1.80;;;;;4.20;96202.00;;;;5095128;28;20282;-54
2022/11/03 02:54:03;;;;;;;1.00;1.00;;;;;4.20;96196.00;;;;5095068;28;20186;-55
2022/11/03 02:56:33;;;;;;;0.70;0.70;;;;;4.00;96185.00;;;;5077287;28;20512;-52
2022/11/03 02:59:08;;;;;;;0.73;0.73;;;;;3.90;96185.00;;;;5094923;28;20231;-54
2022/11/03 03:01:45;;;;;;;0.53;0.53;;;;;3.90;96179.00;;;;5094789;28;20215;-55
2022/11/03 03:04:17;;;;;;;0.80;0.80;;;;;3.90;96184.00;;;;5094929;28;20203;-54
2022/11/03 03:06:51;;;;;;;0.67;0.67;;;;;4.00;96194.00;;;;5094814;28;20218;-55
2022/11/03 03:09:24;;;;;;;1.10;1.03;;;;;3.80;96185.00;;;;5094862;28;20198;-54
2022/11/03 03:11:54;;;;;;;1.93;1.70;;;;;3.90;96181.00;;;;5094879;28;20219;-54
2022/11/03 03:14:26;;;;;;;0.70;0.70;;;;;3.90;96174.00;;;;5094793;28;20218;-54
2022/11/03 03:16:58;;;;;;;1.20;1.20;;;;;4.00;96164.00;;;;5094696;28;20191;-54
2022/11/03 03:19:36;;;;;;;1.50;0.80;;;;;4.00;96160.00;;;;5094655;28;20226;-54
2022/11/03 03:22:13;;;;;;;0.87;0.87;;;;;4.00;96153.00;;;;5094901;28;20194;-59
2022/11/03 03:24:47;;;;;;;0.80;0.80;;;;;3.90;96151.00;;;;5094650;28;20247;-55
2022/11/03 03:27:18;;;;;;;5.83;1.47;;;;;3.90;96161.00;;;;5094737;28;20194;-54
2022/11/03 03:29:51;;;;;;;1.63;1.53;;;;;4.00;96150.00;;;;5094496;28;20225;-54
2022/11/03 03:32:24;;;;;;;2.40;2.03;;;;;4.00;96141.00;;;;5094587;28;20551;-54
2022/11/03 03:34:55;;;;;;;1.10;1.10;;;;;4.00;96141.00;;;;5094465;28;20226;-58
2022/11/03 03:37:25;;;;;;;4.27;1.13;;;;;3.90;96135.00;;;;5094327;28;20198;-52
2022/11/03 03:39:59;;;;;;;0.77;0.77;;;;;4.00;96120.00;;;;5094547;28;20663;-54
2022/11/03 03:42:30;;;;;;;0.60;0.60;;;;;3.60;96120.00;;;;5076940;28;20195;-54
2022/11/03 03:44:59;;;;;;;1.20;1.20;;;;;3.50;96113.00;;;;5094554;28;20521;-54
2022/11/03 03:47:30;;;;;;;1.07;1.07;;;;;3.60;96101.00;;;;5094655;28;20210;-55
2022/11/03 03:49:57;;;;;;;1.20;1.20;;;;;3.70;96096.00;;;;5094657;28;20222;-53
2022/11/03 03:52:28;;;;;;;0.80;0.80;;;;;3.60;96098.00;;;;5094231;28;20206;-57
2022/11/03 03:54:57;;;;;;;0.80;0.80;;;;;3.40;96107.00;;;;5076351;28;20202;-53
2022/11/03 03:57:25;;;;;;;1.53;1.53;;;;;3.40;96097.00;;;;5076731;28;20367;-53
2022/11/03 03:59:52;;;;;;;1.27;1.20;;;;;3.40;96102.00;;;;5094457;28;20225;-55
2022/11/03 04:02:20;;;;;;;0.83;0.83;;;;;3.50;96097.00;;;;5094550;28;20729;-55
2022/11/03 04:04:46;;;;;;;0.97;0.97;;;;;3.60;96098.00;;;;5094569;28;20334;-53
2022/11/03 04:09:58;;;;;;;0.80;0.80;;;;;3.70;96081.00;;;;5094549;28;20210;-55
2022/11/03 04:23:31;;;;;;;1.73;1.63;;;;;3.60;96077.00;;;;5076274;28;20203;-53
2022/11/03 04:25:58;;;;;;;2.40;1.30;;;;;3.50;96076.00;;;;5094021;28;20716;-53
2022/11/03 04:28:26;;;;;;;0.90;0.90;;;;;3.40;96061.00;;;;5094013;28;20534;-53
2022/11/03 04:30:55;;;;;;;0.93;0.93;;;;;3.30;96070.00;;;;5093853;28;20252;-53
2022/11/03 04:33:23;;;;;;;0.70;0.70;;;;;3.50;96064.00;;;;5093872;28;20209;-53
2022/11/03 04:35:52;;;;;;;0.93;0.93;;;;;3.50;96066.00;;;;5093806;28;20218;-53
2022/11/03 04:38:22;;;;;;;0.90;0.90;;;;;3.40;96070.00;;;;5093869;28;20194;-52
2022/11/03 04:40:54;;;;;;;0.73;0.73;;;;;3.20;96069.00;;;;5093703;28;20238;-53
2022/11/03 04:43:29;;;;;;;0.80;0.80;;;;;3.20;96068.00;;;;5093841;28;20619;-53
2022/11/03 04:45:58;;;;;;;0.90;0.90;;;;;3.30;96058.00;;;;5093912;28;20702;-53
2022/11/03 04:48:29;;;;;;;0.70;0.70;;;;;3.40;96050.00;;;;5093872;28;20210;-53
2022/11/03 04:50:59;;;;;;;0.77;0.77;;;;;3.50;96045.00;;;;5093775;28;20194;-54
2022/11/03 04:53:31;;;;;;;0.80;0.80;;;;;3.30;96052.00;;;;5093936;28;20190;-58
2022/11/03 04:55:59;;;;;;;0.70;0.67;;;;;3.40;96046.00;;;;5093959;28;20635;-59
2022/11/03 04:58:29;;;;;;;0.70;0.70;;;;;3.30;96043.00;;;;5075744;28;20568;-59
2022/11/03 05:00:58;;;;;;;0.93;0.93;;;;;3.30;96043.00;;;;5075710;28;20233;-55
2022/11/03 05:03:27;;;;;;;0.67;0.67;;;;;3.40;96028.00;;;;5093771;28;20628;-55
2022/11/03 05:05:57;;;;;;;0.60;0.60;;;;;3.40;96014.00;;;;5096964;28;20245;-53
2022/11/03 05:08:24;;;;;;;0.80;0.80;;;;;3.40;96021.00;;;;5097064;28;20214;-53
2022/11/03 05:10:51;;;;;;;0.70;0.70;;;;;3.30;96016.00;;;;5097032;28;20237;-54
2022/11/03 05:13:20;;;;;;;1.00;1.00;;;;;3.40;96011.00;;;;5097003;28;20201;-54
2022/11/03 05:15:51;;;;;;;0.70;0.70;;;;;3.40;96010.00;;;;5096984;28;20213;-53
2022/11/03 05:18:20;;;;;;;0.87;0.87;;;;;3.30;96008.00;;;;5096943;28;20274;-52
2022/11/03 05:20:51;;;;;;;1.47;1.47;;;;;3.30;95999.00;;;;5096849;28;20232;-53
2022/11/03 05:23:20;;;;;;;1.23;1.17;;;;;3.30;95989.00;;;;5079022;28;20214;-53
2022/11/03 05:25:49;;;;;;;1.00;1.00;;;;;3.40;95989.00;;;;5096898;28;20187;-53
2022/11/03 05:28:23;;;;;;;0.93;0.93;;;;;3.50;95997.00;;;;5096837;28;20220;-53
2022/11/03 05:30:51;;;;;;;1.33;1.30;;;;;3.40;95984.00;;;;5079065;28;20209;-54
2022/11/03 05:33:25;;;;;;;1.50;1.40;;;;;3.30;95996.00;;;;5096684;28;20199;-53
2022/11/03 05:35:56;;;;;;;1.07;1.03;;;;;3.20;95990.00;;;;5096633;28;20614;-53
2022/11/03 05:38:24;;;;;;;1.40;1.20;;;;;3.20;95987.00;;;;5096657;28;20186;-52
2022/11/03 05:40:53;;;;;;;0.70;0.70;;;;;3.10;95984.00;;;;5078637;28;20249;-53
2022/11/03 05:43:21;;;;;;;2.13;1.53;;;;;3.00;95983.00;;;;5096573;28;20186;-53
2022/11/03 05:45:51;;;;;;;0.90;0.90;;;;;3.10;95979.00;;;;5096584;28;20307;-55
2022/11/03 05:48:30;;;;;;;1.10;1.10;;;;;3.20;95985.00;;;;5078594;28;20627;-53
2022/11/03 05:50:59;;;;;;;0.70;0.70;;;;;3.30;95977.00;;;;5096471;28;20663;-53
2022/11/03 05:53:30;;;;;;;1.00;1.00;;;;;3.70;95964.00;;;;5096241;28;20242;-53
2022/11/03 05:55:59;;;;;;;1.27;1.27;;;;;3.90;95964.00;;;;5096294;28;20266;-53
2022/11/03 05:58:31;;;;;;;0.90;0.90;;;;;3.80;95963.00;;;;5096165;28;20295;-53
2022/11/03 06:00:59;;;;;;;0.90;0.90;;;;;3.60;95950.00;;;;5096254;28;20221;-53
2022/11/03 06:03:29;;;;;;;0.60;0.60;;;;;3.40;95936.00;;;;5096213;28;20190;-54
2022/11/03 06:05:56;;;;;;;0.60;0.60;;;;;3.40;95940.00;;;;5096146;28;20194;-54
2022/11/03 06:08:32;;;;;;;0.60;0.60;;;;;3.20;95939.00;;;;5096076;28;20674;-54
2022/11/03 06:11:00;;;;;;;0.80;0.80;;;;;3.00;95928.00;;;;5096209;28;20205;-53
2022/11/03 06:13:31;;;;;;;1.17;1.17;;;;;3.10;95942.00;;;;5096071;28;20215;-54
2022/11/03 06:16:02;;;;;;;1.20;1.10;;;;;3.20;95934.00;;;;5095460;28;20290;-54
2022/11/03 06:18:33;;;;;;;0.93;0.93;;;;;3.40;95928.00;;;;5096042;28;20218;-54
2022/11/03 06:21:06;;;;;;;0.60;0.60;;;;;3.40;95931.00;;;;5078099;28;20224;-53
2022/11/03 06:23:35;;;;;;;1.97;1.77;;;;;3.30;95934.00;;;;5095861;28;20227;-55
2022/11/03 06:26:03;;;;;;;0.80;0.80;;;;;3.20;95930.00;;;;5096001;28;20214;-53
2022/11/03 06:28:35;;;;;;;1.10;1.10;;;;;3.20;95935.00;;;;5095858;28;20245;-55
2022/11/03 06:31:03;;;;;;;3.83;1.07;;;;;3.30;95928.00;;;;5078368;28;20202;-55
2022/11/03 06:33:34;;;;;;;0.93;0.93;;;;;3.30;95924.00;;;;5095782;28;20215;-60
2022/11/03 06:36:09;;;;;;;1.10;1.10;;;;;3.30;95928.00;;;;5096095;28;20269;-54
2022/11/03 06:38:37;;;;;;;0.80;0.80;;;;;3.40;95917.00;;;;5095661;28;20220;-53
2022/11/03 06:41:04;;;;;;;1.13;1.13;;;;;3.30;95930.00;;;;5095590;28;20351;-52
2022/11/03 06:43:37;;;;;;;0.63;0.63;;;;;3.30;95920.00;;;;5095558;28;20295;-54
2022/11/03 06:46:12;;;;;;;1.10;1.10;;;;;3.30;95920.00;;;;5095537;28;20206;-55
2022/11/03 06:48:41;;;;;;;0.77;0.77;;;;;3.40;95920.00;;;;5095576;28;20356;-54
2022/11/03 06:51:15;;;;;;;0.83;0.83;;;;;3.60;95926.00;;;;5095419;28;20236;-53
2022/11/03 06:53:43;;;;;;;0.60;0.60;;;;;3.70;95913.00;;;;5095387;28;20250;-53
2022/11/03 06:56:15;;;;;;;2.43;1.67;;;;;4.00;95906.00;;;;5095376;28;20202;-53
2022/11/03 06:58:42;;;;;;;1.80;1.57;;;;;4.40;95896.00;;;;5095257;28;20335;-54
2022/11/03 07:01:14;;;;;;;0.70;0.70;;;;;4.40;95891.00;;;;5095233;28;20272;-55
2022/11/03 07:03:41;;;;;;;0.70;0.70;;;;;4.10;95899.00;;;;5095345;28;20230;-54
2022/11/03 07:06:16;;;;;;;0.57;0.57;;;;;4.10;95896.00;;;;5095298;28;20204;-53
2022/11/03 07:08:46;;;;;;;0.77;0.77;;;;;4.10;95888.00;;;;5095027;28;20248;-55
2022/11/03 07:11:17;;;;;;;1.63;1.53;;;;;4.40;95894.00;;;;5095171;28;20280;-54
2022/11/03 07:13:45;;;;;;;0.60;0.60;;;;;4.40;95893.00;;;;5095163;28;20219;-55
2022/11/03 07:16:25;;;;;;;1.50;1.40;;;;;4.30;95888.00;;;;5095129;28;20666;-53
2022/11/03 07:18:52;;;;;;;2.10;1.70;;;;;4.40;95898.00;;;;5095195;28;20744;-62
2022/11/03 07:21:36;;;;;;;1.27;1.27;;;;;4.30;95882.00;;;;5095055;28;20256;-60
2022/11/03 07:24:13;;;;;;;1.10;1.07;;;;;4.20;95888.00;;;;5093417;28;20297;-56
2022/11/03 07:26:42;;;;;;;1.50;1.40;;;;;4.30;95883.00;;;;5095131;28;20617;-54
2022/11/03 07:29:17;;;;;;;1.00;1.00;;;;;4.50;95875.00;;;;5093739;28;20230;-55
2022/11/03 07:31:44;;;;;;;1.17;1.17;;;;;4.60;95871.00;;;;5094904;28;20359;-53
2022/11/03 07:34:18;;;;;;;1.30;1.20;;;;;4.70;95872.00;;;;5094827;28;20220;-53
2022/11/03 07:36:45;;;;;;;1.07;1.07;;;;;4.70;95861.00;;;;5076934;28;20517;-55
2022/11/03 07:39:17;;;;;;;1.20;1.20;;;;;4.60;95866.00;;;;5094634;28;20214;-54
2022/11/03 07:41:44;;;;;;;1.53;1.47;;;;;4.70;95855.00;;;;5094893;28;20518;-54
2022/11/03 07:44:16;;;;;;;0.70;0.70;;;;;4.90;95871.00;;;;5094580;28;20312;-54
2022/11/03 07:46:45;;;;;;;0.80;0.80;;;;;5.00;95849.00;;;;5094766;28;20186;-54
2022/11/03 07:49:23;;;;;;;0.73;0.73;;;;;5.10;95848.00;;;;5094589;28;20226;-53
2022/11/03 07:51:53;;;;;;;4.80;1.53;;;;;5.20;95844.00;;;;5076775;28;20206;-53
2022/11/03 07:54:23;;;;;;;0.90;0.90;;;;;5.20;95843.00;;;;5094455;28;20203;-54
2022/11/03 07:56:54;;;;;;;0.70;0.70;;;;;5.30;95831.00;;;;5094590;28;20274;-56
2022/11/03 07:59:26;;;;;;;0.60;0.60;;;;;5.60;95831.00;;;;5094466;28;20205;-58
2022/11/03 08:01:54;;;;;;;0.50;0.50;;;;;6.00;95822.00;;;;5094167;28;20216;-55
2022/11/03 08:04:25;;;;;;;1.60;1.50;;;;;6.00;95830.00;;;;5076538;28;20297;-54
2022/11/03 08:06:54;;;;;;;1.90;1.50;;;;;6.10;95811.00;;;;5094305;28;20226;-58
2022/11/03 08:09:22;;;;;;;0.73;0.73;;;;;6.00;95815.00;;;;5094357;28;20591;-53
2022/11/03 08:11:49;;;;;;;1.20;1.20;;;;;6.30;95818.00;;;;5094227;28;20387;-53
2022/11/03 08:14:16;;;;;;;0.70;0.70;;;;;6.40;95814.00;;;;5094298;28;20210;-55
2022/11/03 08:16:43;;;;;;;0.60;0.60;;;;;6.60;95815.00;;;;5094412;28;20197;-53
2022/11/03 08:19:10;;;;;;;0.50;0.50;;;;;6.60;95806.00;;;;5094205;28;20187;-59
2022/11/03 08:21:37;;;;;;;1.47;1.40;;;;;6.80;95802.00;;;;5076342;28;20216;-52
2022/11/03 08:24:05;;;;;;;3.70;2.23;;;;;6.80;95811.00;;;;5093850;28;20336;-55
2022/11/03 08:26:33;;;;;;;1.77;1.63;;;;;7.10;95798.00;;;;5076227;28;20348;-53
2022/11/03 08:29:00;;;;;;;2.70;2.53;;;;;7.20;95792.00;;;;5093944;28;20222;-53
2022/11/03 08:31:27;;;;;;;1.27;1.27;;;;;7.30;95789.00;;;;5076416;28;20213;-54
2022/11/03 08:33:56;;;;;;;2.10;2.00;;;;;7.50;95796.00;;;;5093979;28;20680;-53
2022/11/03 08:36:25;;;;;;;1.90;1.80;;;;;7.60;95784.00;;;;5076100;28;20210;-53
2022/11/03 08:38:52;;;;;;;1.20;1.20;;;;;7.80;95788.00;;;;5093636;28;20248;-54
2022/11/03 08:41:18;;;;;;;2.67;0.90;;;;;8.00;95775.00;;;;5075842;28;20232;-52
2022/11/03 08:43:46;;;;;;;0.77;0.77;;;;;8.20;95780.00;;;;5093714;28;20229;-53
2022/11/03 08:46:13;;;;;;;1.00;1.00;;;;;8.20;95776.00;;;;5093759;28;20260;-52
2022/11/03 08:48:40;;;;;;;0.67;0.67;;;;;8.30;95774.00;;;;5093684;28;20297;-52
2022/11/03 08:51:09;;;;;;;0.90;0.90;;;;;8.30;95778.00;;;;5093763;28;20228;-51
2022/11/03 08:53:37;;;;;;;1.17;1.17;;;;;8.40;95779.00;;;;5093867;28;20198;-52
2022/11/03 08:56:06;;;;;;;0.87;0.87;;;;;8.10;95773.00;;;;5093604;28;20199;-53
2022/11/03 08:58:33;;;;;;;0.73;0.73;;;;;8.20;95767.00;;;;5075638;28;20218;-52
2022/11/03 09:01:01;;;;;;;1.00;1.00;;;;;8.10;95769.00;;;;5093643;28;20232;-58
2022/11/03 09:03:27;;;;;;;1.10;1.10;;;;;8.50;95766.00;;;;5075638;28;20520;-51
2022/11/03 09:05:56;;;;;;;1.07;1.07;;;;;8.80;95760.00;;;;5075631;28;20288;-52
2022/11/03 09:08:23;;;;;;;5.70;1.80;;;;;9.00;95761.00;;;;5093377;28;20305;-54
2022/11/03 09:10:50;;;;;;;2.60;2.37;;;;;9.00;95754.00;;;;5093509;28;20270;-53
2022/11/03 09:13:19;;;;;;;1.00;1.00;;;;;9.20;95755.00;;;;5093363;28;20214;-53
2022/11/03 09:15:46;;;;;;;1.13;1.03;;;;;9.20;95765.00;;;;5075672;28;20324;-54
2022/11/03 09:18:14;;;;;;;0.77;0.77;;;;;9.50;95755.00;;;;5093394;28;20233;-54
2022/11/03 09:20:40;;;;;;;1.00;1.00;;;;;9.60;95752.00;;;;5093132;28;20226;-53
2022/11/03 09:23:08;;;;;;;0.70;0.70;;;;;9.60;95748.00;;;;5093343;28;20680;-52
2022/11/03 09:25:34;;;;;;;0.70;0.70;;;;;9.50;95752.00;;;;5093177;28;20215;-54
2022/11/03 09:28:01;;;;;;;1.20;1.20;;;;;9.50;95751.00;;;;5093282;28;20206;-52
2022/11/03 09:30:28;;;;;;;1.40;1.30;;;;;9.60;95752.00;;;;5093274;28;20234;-52
2022/11/03 09:32:57;;;;;;;1.30;1.27;;;;;9.30;95738.00;;;;5093184;28;20206;-52
2022/11/03 09:35:25;;;;;;;3.77;2.23;;;;;9.50;95727.00;;;;5093018;28;20278;-52
2022/11/03 09:37:51;;;;;;;1.53;1.43;;;;;9.60;95732.00;;;;5092817;28;20279;-52
2022/11/03 09:40:20;;;;;;;1.40;1.30;;;;;9.70;95729.00;;;;5075233;28;20227;-54
2022/11/03 09:42:47;;;;;;;1.10;1.10;;;;;9.60;95711.00;;;;5075040;28;20230;-52
2022/11/03 09:45:14;;;;;;;1.30;1.30;;;;;9.50;95707.00;;;;5093102;28;20285;-53
2022/11/03 09:47:42;;;;;;;1.37;1.37;;;;;9.60;95714.00;;;;5092951;28;20267;-53
2022/11/03 09:50:15;;;;;;;2.07;1.10;;;;;9.70;95709.00;;;;5093069;28;20190;-53
2022/11/03 09:52:45;;;;;;;1.07;1.07;;;;;9.80;95705.00;;;;5095724;28;20198;-52
2022/11/03 09:55:17;;;;;;;0.73;0.73;;;;;9.90;95700.00;;;;5096412;28;20225;-53
2022/11/03 09:57:44;;;;;;;2.53;1.47;;;;;10.00;95718.00;;;;5096314;28;20293;-52
2022/11/03 10:00:18;;;;;;;1.70;1.60;;;;;10.00;95715.00;;;;5096306;28;20735;-52
2022/11/03 10:02:45;;;;;;;1.13;1.13;;;;;10.20;95724.00;;;;5096400;28;20183;-52
2022/11/03 10:05:19;;;;;;;3.13;1.47;;;;;10.20;95711.00;;;;5096164;28;20211;-55
2022/11/03 10:07:47;;;;;;;1.00;1.00;;;;;10.20;95703.00;;;;5096446;28;20289;-54
2022/11/03 10:10:17;;;;;;;0.87;0.87;;;;;10.40;95700.00;;;;5096289;28;20195;-55
2022/11/03 10:12:45;;;;;;;1.10;1.03;;;;;10.20;95686.00;;;;5096284;28;20199;-53
2022/11/03 10:15:16;;;;;;;0.90;0.90;;;;;10.30;95689.00;;;;5096268;28;20295;-54
2022/11/03 10:17:44;;;;;;;1.23;1.23;;;;;10.50;95685.00;;;;5096300;28;20222;-53
2022/11/03 10:20:12;;;;;;;13.43;1.47;;;;;10.10;95677.00;;;;5095996;28;20514;-53
2022/11/03 10:22:40;;;;;;;1.00;0.90;;;;;10.40;95675.00;;;;5095896;28;20246;-58
2022/11/03 10:25:33;;;;;;;1.10;1.10;;;;;10.50;95674.00;;;;5096040;28;20603;-54
2022/11/03 10:28:15;;;;;;;1.77;1.67;;;;;10.50;95665.00;;;;5096040;28;20194;-54
2022/11/03 10:30:53;;;;;;;1.17;1.07;;;;;10.70;95658.00;;;;5095967;28;20263;-54
2022/11/03 10:33:29;;;;;;;0.90;0.90;;;;;10.90;95649.00;;;;5096661;28;20269;-53
2022/11/03 10:35:57;;;;;;;2.57;1.87;;;;;11.00;95667.00;;;;5095683;28;20186;-54
2022/11/03 10:38:30;;;;;;;1.00;1.00;;;;;10.90;95648.00;;;;5095855;28;20198;-52
2022/11/03 10:41:09;;;;;;;1.20;1.20;;;;;10.90;95642.00;;;;5095621;28;20231;-53
2022/11/03 10:43:36;;;;;;;1.10;1.10;;;;;11.00;95633.00;;;;5095857;28;20721;-53
2022/11/03 10:46:15;;;;;;;1.37;1.27;;;;;11.00;95635.00;;;;5095872;28;20219;-54
2022/11/03 10:48:42;;;;;;;1.43;1.33;;;;;11.00;95636.00;;;;5077912;28;20205;-54
2022/11/03 10:51:11;;;;;;;1.50;1.37;;;;;11.00;95630.00;;;;5077742;28;20221;-53
2022/11/03 10:53:39;;;;;;;1.40;1.30;;;;;11.00;95629.00;;;;5095688;28;20195;-53
2022/11/03 10:56:07;;;;;;;1.80;1.33;;;;;11.20;95616.00;;;;5077948;28;20255;-57
2022/11/03 10:58:36;;;;;;;8.60;1.57;;;;;11.30;95607.00;;;;5095637;28;20230;-59
2022/11/03 11:01:04;;;;;;;3.10;1.40;;;;;11.40;95605.00;;;;5095704;28;20655;-57
2022/11/03 11:03:34;;;;;;;1.93;1.13;;;;;11.50;95609.00;;;;5095367;28;20219;-54
2022/11/03 11:06:01;;;;;;;0.80;0.80;;;;;11.50;95601.00;;;;5077756;28;20194;-54
2022/11/03 11:08:28;;;;;;;0.83;0.83;;;;;11.60;95601.00;;;;5095395;28;20241;-53
2022/11/03 11:10:54;;;;;;;1.00;1.00;;;;;11.70;95592.00;;;;5095468;28;20268;-53
2022/11/03 11:13:29;;;;;;;1.70;1.60;;;;;11.70;95588.00;;;;5095440;28;20191;-55
2022/11/03 11:15:58;;;;;;;1.20;1.20;;;;;11.80;95591.00;;;;5095409;28;20287;-56
2022/11/03 11:19:03;;;;;;;1.67;1.53;;;;;11.60;95586.00;;;;5095447;28;20199;-54
2022/11/03 11:21:49;;;;;;;0.57;0.57;;;;;11.80;95579.00;;;;5091958;28;20539;-52
2022/11/03 11:24:56;;;;;;;0.73;0.73;;;;;11.90;95573.00;;;;5095319;28;20277;-53
2022/11/03 11:27:56;;;;;;;0.80;0.80;;;;;11.90;95564.00;;;;5095345;28;20298;-54
2022/11/03 11:30:56;;;;;;;0.50;0.50;;;;;12.10;95572.00;;;;5013581;28;20622;-53
2022/11/03 11:33:25;;;;;;;1.23;1.23;;;;;12.00;95565.00;;;;5087278;28;20223;-54
2022/11/03 11:36:25;;;;;;;1.13;1.13;;;;;12.00;95555.00;;;;5095072;28;20195;-52
2022/11/03 11:39:01;;;;;;;1.33;1.23;;;;;12.00;95549.00;;;;5095045;28;20305;-53
2022/11/03 11:42:08;;;;;;;0.60;0.60;;;;;12.10;95544.00;;;;5094726;28;20225;-52
2022/11/03 11:44:53;;;;;;;1.33;1.30;;;;;12.00;95531.00;;;;5094880;28;20206;-57
2022/11/03 11:47:40;;;;;;;1.17;1.17;;;;;11.90;95533.00;;;;5094847;28;20190;-54
2022/11/03 11:50:26;;;;;;;1.10;1.10;;;;;11.90;95531.00;;;;5094664;28;20681;-58
2022/11/03 11:53:02;;;;;;;0.93;0.93;;;;;11.90;95523.00;;;;5094981;28;20179;-54
2022/11/03 11:55:34;;;;;;;0.93;0.93;;;;;11.90;95528.00;;;;5094599;28;20217;-54
2022/11/03 11:58:03;;;;;;;1.60;1.50;;;;;11.90;95528.00;;;;5094796;28;20339;-59
2022/11/03 12:00:32;;;;;;;0.97;0.97;;;;;11.90;95522.00;;;;5094469;28;20237;-53
2022/11/03 12:03:01;;;;;;;1.70;1.60;;;;;11.90;95522.00;;;;5094817;28;20674;-53
2022/11/03 12:05:31;;;;;;;1.67;1.57;;;;;11.80;95518.00;;;;5094617;28;20195;-53
2022/11/03 12:07:58;;;;;;;1.07;1.07;;;;;11.70;95519.00;;;;5094474;28;20281;-53
2022/11/03 12:10:27;;;;;;;1.20;1.20;;;;;11.70;95517.00;;;;5094449;28;20201;-53
2022/11/03 12:12:55;;;;;;;1.37;1.33;;;;;11.80;95508.00;;;;5094439;28;20305;-53
2022/11/03 12:15:54;;;;;;;1.70;1.60;;;;;11.80;95508.00;;;;5093731;28;20303;-53
2022/11/03 12:18:31;;;;;;;1.60;1.37;;;;;11.60;95492.00;;;;5094952;28;20228;-54
2022/11/03 12:20:58;;;;;;;1.03;1.03;;;;;11.70;95483.00;;;;5094345;28;20282;-57
2022/11/03 12:23:42;;;;;;;0.80;0.80;;;;;11.80;95477.00;;;;5094407;28;20222;-54
2022/11/03 12:26:17;;;;;;;0.70;0.70;;;;;11.80;95472.00;;;;5094458;28;20202;-53
2022/11/03 12:28:46;;;;;;;2.13;1.07;;;;;11.90;95461.00;;;;5094327;28;20222;-53
2022/11/03 12:31:16;;;;;;;1.60;1.50;;;;;12.00;95459.00;;;;5076521;28;20190;-53
2022/11/03 12:33:43;;;;;;;1.20;1.20;;;;;12.10;95449.00;;;;5076485;28;20522;-53
2022/11/03 12:36:10;;;;;;;3.50;1.13;;;;;12.10;95447.00;;;;5094408;28;20247;-53
2022/11/03 12:38:37;;;;;;;1.00;1.00;;;;;12.10;95440.00;;;;5094357;28;20203;-53
2022/11/03 12:43:45;;;;;;;1.40;1.40;;;;;12.00;95441.00;;;;5093931;28;20214;-53
2022/11/03 12:46:12;;;;;;;0.93;0.93;;;;;12.10;95437.00;;;;5076153;28;20318;-53
2022/11/03 12:48:42;;;;;;;1.17;1.17;;;;;12.20;95432.00;;;;5094190;28;20221;-53
2022/11/03 12:51:11;;;;;;;0.73;0.73;;;;;12.20;95420.00;;;;5093954;28;20299;-54
2022/11/03 12:53:38;;;;;;;1.40;1.30;;;;;12.20;95417.00;;;;5094158;28;20580;-54
2022/11/03 12:56:05;;;;;;;1.03;1.03;;;;;12.10;95413.00;;;;5094153;28;20224;-56
2022/11/03 12:58:32;;;;;;;1.47;1.37;;;;;12.20;95403.00;;;;5093904;28;20217;-54
2022/11/03 13:01:01;;;;;;;1.33;1.27;;;;;12.20;95397.00;;;;5076064;28;20226;-56
2022/11/03 13:03:28;;;;;;;0.77;0.77;;;;;12.20;95393.00;;;;5093904;28;20701;-54
2022/11/03 13:05:56;;;;;;;1.10;1.10;;;;;12.40;95386.00;;;;5093991;28;20195;-53